sensor_id;sensor_type;location;lat;lon;timestamp;P1;durP1;ratioP1;P2;durP2;ratioP2
60225;SDS011;46090;48.436;11.410;2024-02-28T00:05:13;26.98;;;14.93;;
60225;SDS011;46090;48.436;11.410;2024-02-28T00:07:40;28.20;;;16.10;;
60225;SDS011;46090;48.436;11.410;2024-02-28T00:10:07;29.50;;;15.70;;
60225;SDS011;46090;48.436;11.410;2024-02-28T00:12:34;27.67;;;15.82;;
60225;SDS011;46090;48.436;11.410;2024-02-28T00:15:01;27.08;;;14.80;;
60225;SDS011;46090;48.436;11.410;2024-02-28T00:17:27;28.17;;;15.02;;
60225;SDS011;46090;48.436;11.410;2024-02-28T00:19:54;23.73;;;13.52;;
60225;SDS011;46090;48.436;11.410;2024-02-28T00:22:21;23.13;;;12.52;;
60225;SDS011;46090;48.436;11.410;2024-02-28T00:24:47;23.63;;;12.55;;
60225;SDS011;46090;48.436;11.410;2024-02-28T00:27:14;24.38;;;14.07;;
60225;SDS011;46090;48.436;11.410;2024-02-28T00:29:41;24.63;;;14.15;;
60225;SDS011;46090;48.436;11.410;2024-02-28T00:32:08;27.73;;;14.57;;
60225;SDS011;46090;48.436;11.410;2024-02-28T00:34:35;27.38;;;14.52;;
60225;SDS011;46090;48.436;11.410;2024-02-28T00:37:01;27.10;;;14.55;;
60225;SDS011;46090;48.436;11.410;2024-02-28T00:39:28;25.85;;;14.70;;
60225;SDS011;46090;48.436;11.410;2024-02-28T00:41:55;25.52;;;14.98;;
60225;SDS011;46090;48.436;11.410;2024-02-28T00:44:22;24.13;;;14.32;;
60225;SDS011;46090;48.436;11.410;2024-02-28T00:46:48;30.27;;;15.02;;
60225;SDS011;46090;48.436;11.410;2024-02-28T00:49:15;25.85;;;13.00;;
60225;SDS011;46090;48.436;11.410;2024-02-28T00:51:42;29.20;;;14.32;;
60225;SDS011;46090;48.436;11.410;2024-02-28T00:54:08;28.77;;;14.70;;
60225;SDS011;46090;48.436;11.410;2024-02-28T00:56:35;28.08;;;16.08;;
60225;SDS011;46090;48.436;11.410;2024-02-28T00:59:02;29.90;;;16.02;;
60225;SDS011;46090;48.436;11.410;2024-02-28T01:01:29;30.13;;;16.88;;
60225;SDS011;46090;48.436;11.410;2024-02-28T01:03:55;33.75;;;18.33;;
60225;SDS011;46090;48.436;11.410;2024-02-28T01:06:22;28.02;;;15.63;;
60225;SDS011;46090;48.436;11.410;2024-02-28T01:08:49;26.45;;;15.20;;
60225;SDS011;46090;48.436;11.410;2024-02-28T01:11:15;26.85;;;14.93;;
60225;SDS011;46090;48.436;11.410;2024-02-28T01:13:42;27.08;;;14.40;;
60225;SDS011;46090;48.436;11.410;2024-02-28T01:16:10;27.42;;;14.85;;
60225;SDS011;46090;48.436;11.410;2024-02-28T01:18:36;28.40;;;14.75;;
60225;SDS011;46090;48.436;11.410;2024-02-28T01:21:03;28.73;;;15.70;;
60225;SDS011;46090;48.436;11.410;2024-02-28T01:23:30;30.48;;;15.77;;
60225;SDS011;46090;48.436;11.410;2024-02-28T01:25:57;29.55;;;15.68;;
60225;SDS011;46090;48.436;11.410;2024-02-28T01:28:24;30.30;;;15.68;;
60225;SDS011;46090;48.436;11.410;2024-02-28T01:30:51;31.05;;;16.67;;
60225;SDS011;46090;48.436;11.410;2024-02-28T01:33:18;31.60;;;16.58;;
60225;SDS011;46090;48.436;11.410;2024-02-28T01:35:44;30.13;;;15.98;;
60225;SDS011;46090;48.436;11.410;2024-02-28T01:38:11;28.00;;;15.27;;
60225;SDS011;46090;48.436;11.410;2024-02-28T01:40:38;29.70;;;15.52;;
60225;SDS011;46090;48.436;11.410;2024-02-28T01:43:07;26.10;;;14.65;;
60225;SDS011;46090;48.436;11.410;2024-02-28T01:45:34;28.30;;;15.75;;
60225;SDS011;46090;48.436;11.410;2024-02-28T01:48:02;27.45;;;15.52;;
60225;SDS011;46090;48.436;11.410;2024-02-28T01:50:29;28.58;;;15.98;;
60225;SDS011;46090;48.436;11.410;2024-02-28T01:52:56;30.05;;;16.48;;
60225;SDS011;46090;48.436;11.410;2024-02-28T01:55:22;34.22;;;17.40;;
60225;SDS011;46090;48.436;11.410;2024-02-28T01:57:50;38.63;;;20.00;;
60225;SDS011;46090;48.436;11.410;2024-02-28T02:00:18;37.33;;;18.65;;
60225;SDS011;46090;48.436;11.410;2024-02-28T02:02:45;34.45;;;18.88;;
60225;SDS011;46090;48.436;11.410;2024-02-28T02:05:12;36.33;;;18.60;;
60225;SDS011;46090;48.436;11.410;2024-02-28T02:07:39;42.55;;;19.77;;
60225;SDS011;46090;48.436;11.410;2024-02-28T02:10:06;34.78;;;17.77;;
60225;SDS011;46090;48.436;11.410;2024-02-28T02:12:35;34.40;;;18.20;;
60225;SDS011;46090;48.436;11.410;2024-02-28T02:15:02;31.70;;;16.55;;
60225;SDS011;46090;48.436;11.410;2024-02-28T02:17:29;34.90;;;17.85;;
60225;SDS011;46090;48.436;11.410;2024-02-28T02:19:56;36.05;;;18.95;;
60225;SDS011;46090;48.436;11.410;2024-02-28T02:22:23;33.05;;;17.67;;
60225;SDS011;46090;48.436;11.410;2024-02-28T02:24:49;33.20;;;17.20;;
60225;SDS011;46090;48.436;11.410;2024-02-28T02:27:16;32.90;;;16.80;;
60225;SDS011;46090;48.436;11.410;2024-02-28T02:29:43;29.10;;;16.00;;
60225;SDS011;46090;48.436;11.410;2024-02-28T02:32:09;32.15;;;17.00;;
60225;SDS011;46090;48.436;11.410;2024-02-28T02:34:36;31.63;;;16.55;;
60225;SDS011;46090;48.436;11.410;2024-02-28T02:37:03;31.60;;;16.80;;
60225;SDS011;46090;48.436;11.410;2024-02-28T02:39:31;31.05;;;17.02;;
60225;SDS011;46090;48.436;11.410;2024-02-28T02:41:58;35.83;;;18.02;;
60225;SDS011;46090;48.436;11.410;2024-02-28T02:44:26;33.78;;;17.85;;
60225;SDS011;46090;48.436;11.410;2024-02-28T02:46:52;30.95;;;17.00;;
60225;SDS011;46090;48.436;11.410;2024-02-28T02:49:19;31.23;;;16.63;;
60225;SDS011;46090;48.436;11.410;2024-02-28T02:51:46;37.40;;;19.30;;
60225;SDS011;46090;48.436;11.410;2024-02-28T02:54:12;36.92;;;18.10;;
60225;SDS011;46090;48.436;11.410;2024-02-28T02:56:42;36.60;;;19.02;;
60225;SDS011;46090;48.436;11.410;2024-02-28T02:59:10;38.55;;;18.73;;
60225;SDS011;46090;48.436;11.410;2024-02-28T03:01:37;39.00;;;19.48;;
60225;SDS011;46090;48.436;11.410;2024-02-28T03:04:04;42.40;;;21.45;;
60225;SDS011;46090;48.436;11.410;2024-02-28T03:06:31;42.28;;;21.52;;
60225;SDS011;46090;48.436;11.410;2024-02-28T03:08:58;43.67;;;21.98;;
60225;SDS011;46090;48.436;11.410;2024-02-28T03:11:25;41.42;;;21.05;;
60225;SDS011;46090;48.436;11.410;2024-02-28T03:13:52;43.75;;;22.67;;
60225;SDS011;46090;48.436;11.410;2024-02-28T03:16:18;49.85;;;23.88;;
60225;SDS011;46090;48.436;11.410;2024-02-28T03:18:45;45.00;;;22.25;;
60225;SDS011;46090;48.436;11.410;2024-02-28T03:21:12;44.35;;;22.35;;
60225;SDS011;46090;48.436;11.410;2024-02-28T03:23:40;43.92;;;21.17;;
60225;SDS011;46090;48.436;11.410;2024-02-28T03:26:07;54.95;;;25.02;;
60225;SDS011;46090;48.436;11.410;2024-02-28T03:28:33;49.95;;;23.55;;
60225;SDS011;46090;48.436;11.410;2024-02-28T03:31:00;48.25;;;24.33;;
60225;SDS011;46090;48.436;11.410;2024-02-28T03:33:26;48.63;;;24.27;;
60225;SDS011;46090;48.436;11.410;2024-02-28T03:35:53;44.03;;;22.75;;
60225;SDS011;46090;48.436;11.410;2024-02-28T03:38:20;45.55;;;23.13;;
60225;SDS011;46090;48.436;11.410;2024-02-28T03:40:47;54.28;;;25.88;;
60225;SDS011;46090;48.436;11.410;2024-02-28T03:43:13;51.47;;;24.27;;
60225;SDS011;46090;48.436;11.410;2024-02-28T03:45:40;49.20;;;25.15;;
60225;SDS011;46090;48.436;11.410;2024-02-28T03:48:07;44.00;;;22.40;;
60225;SDS011;46090;48.436;11.410;2024-02-28T03:50:34;45.25;;;22.15;;
60225;SDS011;46090;48.436;11.410;2024-02-28T03:53:00;44.10;;;22.75;;
60225;SDS011;46090;48.436;11.410;2024-02-28T03:55:27;47.20;;;23.80;;
60225;SDS011;46090;48.436;11.410;2024-02-28T03:57:54;47.10;;;22.77;;
60225;SDS011;46090;48.436;11.410;2024-02-28T04:00:21;49.80;;;24.80;;
60225;SDS011;46090;48.436;11.410;2024-02-28T04:02:48;50.10;;;22.58;;
60225;SDS011;46090;48.436;11.410;2024-02-28T04:05:14;45.80;;;21.67;;
60225;SDS011;46090;48.436;11.410;2024-02-28T04:07:41;42.17;;;21.60;;
60225;SDS011;46090;48.436;11.410;2024-02-28T04:10:08;44.55;;;23.05;;
60225;SDS011;46090;48.436;11.410;2024-02-28T04:12:37;47.75;;;23.50;;
60225;SDS011;46090;48.436;11.410;2024-02-28T04:15:04;49.33;;;23.02;;
60225;SDS011;46090;48.436;11.410;2024-02-28T04:17:31;47.55;;;23.48;;
60225;SDS011;46090;48.436;11.410;2024-02-28T04:19:58;45.17;;;22.92;;
60225;SDS011;46090;48.436;11.410;2024-02-28T04:22:25;43.17;;;23.40;;
60225;SDS011;46090;48.436;11.410;2024-02-28T04:24:51;47.65;;;21.50;;
60225;SDS011;46090;48.436;11.410;2024-02-28T04:27:18;44.15;;;22.95;;
60225;SDS011;46090;48.436;11.410;2024-02-28T04:29:45;44.25;;;22.50;;
60225;SDS011;46090;48.436;11.410;2024-02-28T04:32:12;47.53;;;22.80;;
60225;SDS011;46090;48.436;11.410;2024-02-28T04:34:38;41.03;;;20.33;;
60225;SDS011;46090;48.436;11.410;2024-02-28T04:37:05;41.67;;;22.67;;
60225;SDS011;46090;48.436;11.410;2024-02-28T04:39:32;43.90;;;21.20;;
60225;SDS011;46090;48.436;11.410;2024-02-28T04:41:58;41.47;;;21.60;;
60225;SDS011;46090;48.436;11.410;2024-02-28T04:44:26;43.10;;;20.88;;
60225;SDS011;46090;48.436;11.410;2024-02-28T04:46:53;40.85;;;21.70;;
60225;SDS011;46090;48.436;11.410;2024-02-28T04:49:19;41.58;;;20.85;;
60225;SDS011;46090;48.436;11.410;2024-02-28T04:51:47;39.92;;;20.52;;
60225;SDS011;46090;48.436;11.410;2024-02-28T04:54:14;42.50;;;20.40;;
60225;SDS011;46090;48.436;11.410;2024-02-28T04:56:41;39.50;;;20.05;;
60225;SDS011;46090;48.436;11.410;2024-02-28T04:59:08;40.60;;;20.83;;
60225;SDS011;46090;48.436;11.410;2024-02-28T05:01:35;40.13;;;20.73;;
60225;SDS011;46090;48.436;11.410;2024-02-28T05:04:06;38.40;;;20.25;;
60225;SDS011;46090;48.436;11.410;2024-02-28T05:06:33;39.10;;;21.27;;
60225;SDS011;46090;48.436;11.410;2024-02-28T05:09:02;50.80;;;25.55;;
60225;SDS011;46090;48.436;11.410;2024-02-28T05:11:29;40.28;;;22.33;;
60225;SDS011;46090;48.436;11.410;2024-02-28T05:13:56;41.13;;;21.58;;
60225;SDS011;46090;48.436;11.410;2024-02-28T05:16:23;41.20;;;21.65;;
60225;SDS011;46090;48.436;11.410;2024-02-28T05:18:49;45.42;;;21.98;;
60225;SDS011;46090;48.436;11.410;2024-02-28T05:21:16;39.38;;;20.73;;
60225;SDS011;46090;48.436;11.410;2024-02-28T05:23:43;40.15;;;21.52;;
60225;SDS011;46090;48.436;11.410;2024-02-28T05:26:10;41.08;;;20.50;;
60225;SDS011;46090;48.436;11.410;2024-02-28T05:28:36;41.70;;;20.77;;
60225;SDS011;46090;48.436;11.410;2024-02-28T05:31:18;41.08;;;21.92;;
60225;SDS011;46090;48.436;11.410;2024-02-28T05:33:47;46.83;;;23.02;;
60225;SDS011;46090;48.436;11.410;2024-02-28T05:36:14;47.17;;;23.20;;
60225;SDS011;46090;48.436;11.410;2024-02-28T05:38:40;49.80;;;22.70;;
60225;SDS011;46090;48.436;11.410;2024-02-28T05:41:07;46.72;;;23.35;;
60225;SDS011;46090;48.436;11.410;2024-02-28T05:43:34;49.85;;;24.02;;
60225;SDS011;46090;48.436;11.410;2024-02-28T05:46:00;44.05;;;23.02;;
60225;SDS011;46090;48.436;11.410;2024-02-28T05:48:27;48.38;;;23.33;;
60225;SDS011;46090;48.436;11.410;2024-02-28T05:50:54;44.33;;;23.05;;
60225;SDS011;46090;48.436;11.410;2024-02-28T05:53:20;42.08;;;21.67;;
60225;SDS011;46090;48.436;11.410;2024-02-28T05:55:47;42.38;;;20.02;;
60225;SDS011;46090;48.436;11.410;2024-02-28T05:58:14;46.28;;;22.52;;
60225;SDS011;46090;48.436;11.410;2024-02-28T06:00:42;47.67;;;23.90;;
60225;SDS011;46090;48.436;11.410;2024-02-28T06:03:09;43.10;;;20.77;;
60225;SDS011;46090;48.436;11.410;2024-02-28T06:05:35;46.92;;;22.48;;
60225;SDS011;46090;48.436;11.410;2024-02-28T06:08:06;44.50;;;22.45;;
60225;SDS011;46090;48.436;11.410;2024-02-28T06:10:32;43.55;;;21.45;;
60225;SDS011;46090;48.436;11.410;2024-02-28T06:12:59;48.25;;;22.63;;
60225;SDS011;46090;48.436;11.410;2024-02-28T06:15:26;45.65;;;22.92;;
60225;SDS011;46090;48.436;11.410;2024-02-28T06:17:56;46.30;;;23.65;;
60225;SDS011;46090;48.436;11.410;2024-02-28T06:20:23;48.25;;;24.30;;
60225;SDS011;46090;48.436;11.410;2024-02-28T06:22:50;47.75;;;23.23;;
60225;SDS011;46090;48.436;11.410;2024-02-28T06:25:17;49.88;;;23.48;;
60225;SDS011;46090;48.436;11.410;2024-02-28T06:27:49;46.03;;;23.70;;
60225;SDS011;46090;48.436;11.410;2024-02-28T06:30:16;52.28;;;24.75;;
60225;SDS011;46090;48.436;11.410;2024-02-28T06:32:43;50.40;;;26.02;;
60225;SDS011;46090;48.436;11.410;2024-02-28T06:35:10;56.72;;;25.30;;
60225;SDS011;46090;48.436;11.410;2024-02-28T06:37:37;56.10;;;26.27;;
60225;SDS011;46090;48.436;11.410;2024-02-28T06:40:03;57.17;;;25.45;;
60225;SDS011;46090;48.436;11.410;2024-02-28T06:42:31;54.70;;;26.35;;
60225;SDS011;46090;48.436;11.410;2024-02-28T06:44:57;57.15;;;26.25;;
60225;SDS011;46090;48.436;11.410;2024-02-28T06:47:24;50.63;;;25.30;;
60225;SDS011;46090;48.436;11.410;2024-02-28T06:49:50;51.92;;;25.35;;
60225;SDS011;46090;48.436;11.410;2024-02-28T06:52:18;54.63;;;25.02;;
60225;SDS011;46090;48.436;11.410;2024-02-28T06:54:45;52.90;;;25.40;;
60225;SDS011;46090;48.436;11.410;2024-02-28T06:57:11;55.42;;;27.25;;
60225;SDS011;46090;48.436;11.410;2024-02-28T06:59:39;58.10;;;26.67;;
60225;SDS011;46090;48.436;11.410;2024-02-28T07:02:06;55.92;;;26.38;;
60225;SDS011;46090;48.436;11.410;2024-02-28T07:04:32;56.95;;;26.40;;
60225;SDS011;46090;48.436;11.410;2024-02-28T07:06:59;51.53;;;25.50;;
60225;SDS011;46090;48.436;11.410;2024-02-28T07:09:26;50.13;;;22.92;;
60225;SDS011;46090;48.436;11.410;2024-02-28T07:11:56;50.72;;;25.08;;
60225;SDS011;46090;48.436;11.410;2024-02-28T07:14:23;51.03;;;22.77;;
60225;SDS011;46090;48.436;11.410;2024-02-28T07:16:50;46.10;;;24.15;;
60225;SDS011;46090;48.436;11.410;2024-02-28T07:19:20;52.38;;;25.50;;
60225;SDS011;46090;48.436;11.410;2024-02-28T07:21:47;46.58;;;23.35;;
60225;SDS011;46090;48.436;11.410;2024-02-28T07:24:13;48.63;;;24.33;;
60225;SDS011;46090;48.436;11.410;2024-02-28T07:26:40;50.42;;;23.70;;
60225;SDS011;46090;48.436;11.410;2024-02-28T07:29:08;48.72;;;23.90;;
60225;SDS011;46090;48.436;11.410;2024-02-28T07:31:34;46.83;;;22.98;;
60225;SDS011;46090;48.436;11.410;2024-02-28T07:34:01;47.53;;;22.33;;
60225;SDS011;46090;48.436;11.410;2024-02-28T07:36:28;50.67;;;24.10;;
60225;SDS011;46090;48.436;11.410;2024-02-28T07:38:55;46.28;;;23.42;;
60225;SDS011;46090;48.436;11.410;2024-02-28T07:41:21;47.38;;;23.75;;
60225;SDS011;46090;48.436;11.410;2024-02-28T07:43:49;46.13;;;23.27;;
60225;SDS011;46090;48.436;11.410;2024-02-28T07:46:15;49.67;;;22.88;;
60225;SDS011;46090;48.436;11.410;2024-02-28T07:48:42;46.63;;;22.27;;
60225;SDS011;46090;48.436;11.410;2024-02-28T07:51:09;47.22;;;21.75;;
60225;SDS011;46090;48.436;11.410;2024-02-28T07:53:36;51.63;;;24.33;;
60225;SDS011;46090;48.436;11.410;2024-02-28T07:56:02;50.78;;;24.60;;
60225;SDS011;46090;48.436;11.410;2024-02-28T07:58:29;54.10;;;25.27;;
60225;SDS011;46090;48.436;11.410;2024-02-28T08:00:56;51.70;;;24.83;;
60225;SDS011;46090;48.436;11.410;2024-02-28T08:03:22;52.45;;;24.48;;
60225;SDS011;46090;48.436;11.410;2024-02-28T08:05:50;51.78;;;24.10;;
60225;SDS011;46090;48.436;11.410;2024-02-28T08:08:16;52.17;;;23.80;;
60225;SDS011;46090;48.436;11.410;2024-02-28T08:10:43;56.47;;;24.30;;
60225;SDS011;46090;48.436;11.410;2024-02-28T08:13:12;49.30;;;23.45;;
60225;SDS011;46090;48.436;11.410;2024-02-28T08:15:39;52.45;;;23.02;;
60225;SDS011;46090;48.436;11.410;2024-02-28T08:18:06;46.90;;;24.50;;
60225;SDS011;46090;48.436;11.410;2024-02-28T08:20:33;50.67;;;24.92;;
60225;SDS011;46090;48.436;11.410;2024-02-28T08:22:59;49.33;;;22.83;;
60225;SDS011;46090;48.436;11.410;2024-02-28T08:25:26;49.17;;;21.80;;
60225;SDS011;46090;48.436;11.410;2024-02-28T08:27:53;46.78;;;22.33;;
60225;SDS011;46090;48.436;11.410;2024-02-28T08:30:20;49.67;;;22.90;;
60225;SDS011;46090;48.436;11.410;2024-02-28T08:32:47;48.38;;;22.80;;
60225;SDS011;46090;48.436;11.410;2024-02-28T08:35:13;53.03;;;23.77;;
60225;SDS011;46090;48.436;11.410;2024-02-28T08:37:40;48.17;;;23.77;;
60225;SDS011;46090;48.436;11.410;2024-02-28T08:40:07;47.25;;;23.90;;
60225;SDS011;46090;48.436;11.410;2024-02-28T08:42:35;47.78;;;21.80;;
60225;SDS011;46090;48.436;11.410;2024-02-28T08:45:01;49.88;;;22.65;;
60225;SDS011;46090;48.436;11.410;2024-02-28T08:47:29;48.40;;;24.23;;
60225;SDS011;46090;48.436;11.410;2024-02-28T08:49:56;51.95;;;24.52;;
60225;SDS011;46090;48.436;11.410;2024-02-28T08:52:23;52.22;;;24.83;;
60225;SDS011;46090;48.436;11.410;2024-02-28T08:54:49;50.28;;;24.38;;
60225;SDS011;46090;48.436;11.410;2024-02-28T08:57:16;55.58;;;25.10;;
60225;SDS011;46090;48.436;11.410;2024-02-28T08:59:43;53.38;;;23.75;;
60225;SDS011;46090;48.436;11.410;2024-02-28T09:02:10;49.05;;;22.70;;
60225;SDS011;46090;48.436;11.410;2024-02-28T09:04:37;50.15;;;25.58;;
60225;SDS011;46090;48.436;11.410;2024-02-28T09:07:04;52.22;;;24.77;;
60225;SDS011;46090;48.436;11.410;2024-02-28T09:09:31;51.05;;;23.80;;
60225;SDS011;46090;48.436;11.410;2024-02-28T09:12:00;47.42;;;23.17;;
60225;SDS011;46090;48.436;11.410;2024-02-28T09:14:30;49.00;;;23.55;;
60225;SDS011;46090;48.436;11.410;2024-02-28T09:16:57;52.20;;;24.08;;
60225;SDS011;46090;48.436;11.410;2024-02-28T09:19:30;51.53;;;23.58;;
60225;SDS011;46090;48.436;11.410;2024-02-28T09:21:57;50.53;;;24.05;;
60225;SDS011;46090;48.436;11.410;2024-02-28T09:24:24;51.25;;;23.13;;
60225;SDS011;46090;48.436;11.410;2024-02-28T09:26:51;55.85;;;25.45;;
60225;SDS011;46090;48.436;11.410;2024-02-28T09:29:18;53.45;;;25.05;;
60225;SDS011;46090;48.436;11.410;2024-02-28T09:31:44;49.75;;;23.08;;
60225;SDS011;46090;48.436;11.410;2024-02-28T09:34:11;47.72;;;23.90;;
60225;SDS011;46090;48.436;11.410;2024-02-28T09:36:41;48.53;;;23.25;;
60225;SDS011;46090;48.436;11.410;2024-02-28T09:39:12;50.05;;;23.30;;
60225;SDS011;46090;48.436;11.410;2024-02-28T09:41:39;47.80;;;22.67;;
60225;SDS011;46090;48.436;11.410;2024-02-28T09:44:07;50.58;;;23.42;;
60225;SDS011;46090;48.436;11.410;2024-02-28T09:46:34;42.65;;;22.17;;
60225;SDS011;46090;48.436;11.410;2024-02-28T09:49:04;49.25;;;23.80;;
60225;SDS011;46090;48.436;11.410;2024-02-28T09:51:32;46.63;;;22.80;;
60225;SDS011;46090;48.436;11.410;2024-02-28T09:54:01;46.55;;;22.67;;
60225;SDS011;46090;48.436;11.410;2024-02-28T09:56:30;45.17;;;22.63;;
60225;SDS011;46090;48.436;11.410;2024-02-28T09:58:58;52.50;;;24.02;;
60225;SDS011;46090;48.436;11.410;2024-02-28T10:01:25;49.38;;;24.35;;
60225;SDS011;46090;48.436;11.410;2024-02-28T10:03:54;50.75;;;24.00;;
60225;SDS011;46090;48.436;11.410;2024-02-28T10:06:22;47.38;;;24.13;;
60225;SDS011;46090;48.436;11.410;2024-02-28T10:08:50;48.13;;;23.23;;
60225;SDS011;46090;48.436;11.410;2024-02-28T10:11:20;51.97;;;23.40;;
60225;SDS011;46090;48.436;11.410;2024-02-28T10:13:48;48.47;;;23.33;;
60225;SDS011;46090;48.436;11.410;2024-02-28T10:16:15;50.78;;;22.63;;
60225;SDS011;46090;48.436;11.410;2024-02-28T10:18:44;45.95;;;22.27;;
60225;SDS011;46090;48.436;11.410;2024-02-28T10:21:11;43.38;;;21.63;;
60225;SDS011;46090;48.436;11.410;2024-02-28T10:23:38;44.55;;;22.15;;
60225;SDS011;46090;48.436;11.410;2024-02-28T10:26:08;43.58;;;21.65;;
60225;SDS011;46090;48.436;11.410;2024-02-28T10:28:39;44.15;;;22.92;;
60225;SDS011;46090;48.436;11.410;2024-02-28T10:31:06;43.85;;;22.48;;
60225;SDS011;46090;48.436;11.410;2024-02-28T10:33:34;49.17;;;22.83;;
60225;SDS011;46090;48.436;11.410;2024-02-28T10:36:03;47.25;;;22.60;;
60225;SDS011;46090;48.436;11.410;2024-02-28T10:38:31;41.38;;;20.40;;
60225;SDS011;46090;48.436;11.410;2024-02-28T10:41:03;44.80;;;20.10;;
60225;SDS011;46090;48.436;11.410;2024-02-28T10:43:31;43.67;;;21.13;;
60225;SDS011;46090;48.436;11.410;2024-02-28T10:45:57;42.28;;;20.90;;
60225;SDS011;46090;48.436;11.410;2024-02-28T10:48:45;43.35;;;20.73;;
60225;SDS011;46090;48.436;11.410;2024-02-28T10:51:15;45.08;;;22.27;;
60225;SDS011;46090;48.436;11.410;2024-02-28T10:53:42;42.45;;;20.05;;
60225;SDS011;46090;48.436;11.410;2024-02-28T10:56:11;41.75;;;20.88;;
60225;SDS011;46090;48.436;11.410;2024-02-28T10:58:41;40.92;;;19.40;;
60225;SDS011;46090;48.436;11.410;2024-02-28T11:01:21;36.47;;;18.58;;
60225;SDS011;46090;48.436;11.410;2024-02-28T11:03:49;40.38;;;19.08;;
60225;SDS011;46090;48.436;11.410;2024-02-28T11:06:17;37.08;;;18.50;;
60225;SDS011;46090;48.436;11.410;2024-02-28T11:08:49;35.88;;;17.90;;
60225;SDS011;46090;48.436;11.410;2024-02-28T11:11:22;37.22;;;18.27;;
60225;SDS011;46090;48.436;11.410;2024-02-28T11:13:55;36.78;;;17.83;;
60225;SDS011;46090;48.436;11.410;2024-02-28T11:16:30;32.72;;;17.90;;
60225;SDS011;46090;48.436;11.410;2024-02-28T11:18:58;36.28;;;18.40;;
60225;SDS011;46090;48.436;11.410;2024-02-28T11:21:26;37.05;;;18.63;;
60225;SDS011;46090;48.436;11.410;2024-02-28T11:23:57;34.35;;;17.52;;
60225;SDS011;46090;48.436;11.410;2024-02-28T11:26:25;33.40;;;17.25;;
60225;SDS011;46090;48.436;11.410;2024-02-28T11:28:57;35.72;;;18.50;;
60225;SDS011;46090;48.436;11.410;2024-02-28T11:31:23;37.70;;;19.20;;
60225;SDS011;46090;48.436;11.410;2024-02-28T11:33:50;42.67;;;20.10;;
60225;SDS011;46090;48.436;11.410;2024-02-28T11:36:17;40.05;;;20.45;;
60225;SDS011;46090;48.436;11.410;2024-02-28T11:38:46;39.20;;;19.60;;
60225;SDS011;46090;48.436;11.410;2024-02-28T11:41:12;37.92;;;19.35;;
60225;SDS011;46090;48.436;11.410;2024-02-28T11:43:39;38.25;;;20.00;;
60225;SDS011;46090;48.436;11.410;2024-02-28T11:46:17;39.22;;;20.63;;
60225;SDS011;46090;48.436;11.410;2024-02-28T11:48:44;39.03;;;19.88;;
60225;SDS011;46090;48.436;11.410;2024-02-28T11:51:12;43.83;;;21.38;;
60225;SDS011;46090;48.436;11.410;2024-02-28T11:53:38;39.90;;;21.05;;
60225;SDS011;46090;48.436;11.410;2024-02-28T11:56:05;46.33;;;22.20;;
60225;SDS011;46090;48.436;11.410;2024-02-28T11:58:35;45.25;;;22.38;;
60225;SDS011;46090;48.436;11.410;2024-02-28T12:01:03;39.78;;;20.30;;
60225;SDS011;46090;48.436;11.410;2024-02-28T12:03:30;42.33;;;21.05;;
60225;SDS011;46090;48.436;11.410;2024-02-28T12:05:58;40.38;;;19.63;;
60225;SDS011;46090;48.436;11.410;2024-02-28T12:08:27;40.38;;;19.80;;
60225;SDS011;46090;48.436;11.410;2024-02-28T12:11:05;40.67;;;19.30;;
60225;SDS011;46090;48.436;11.410;2024-02-28T12:13:34;40.28;;;20.92;;
60225;SDS011;46090;48.436;11.410;2024-02-28T12:20:17;42.15;;;20.08;;
60225;SDS011;46090;48.436;11.410;2024-02-28T12:22:44;40.03;;;20.58;;
60225;SDS011;46090;48.436;11.410;2024-02-28T12:25:11;42.95;;;20.60;;
60225;SDS011;46090;48.436;11.410;2024-02-28T12:27:40;38.47;;;20.38;;
60225;SDS011;46090;48.436;11.410;2024-02-28T12:30:07;42.53;;;21.23;;
60225;SDS011;46090;48.436;11.410;2024-02-28T12:32:34;41.47;;;22.20;;
60225;SDS011;46090;48.436;11.410;2024-02-28T12:35:01;40.22;;;20.55;;
60225;SDS011;46090;48.436;11.410;2024-02-28T12:37:28;40.30;;;20.73;;
60225;SDS011;46090;48.436;11.410;2024-02-28T12:39:54;36.40;;;18.83;;
60225;SDS011;46090;48.436;11.410;2024-02-28T12:42:21;42.42;;;20.13;;
60225;SDS011;46090;48.436;11.410;2024-02-28T12:44:48;38.03;;;18.83;;
60225;SDS011;46090;48.436;11.410;2024-02-28T12:47:14;41.75;;;19.77;;
60225;SDS011;46090;48.436;11.410;2024-02-28T12:49:41;42.40;;;19.60;;
60225;SDS011;46090;48.436;11.410;2024-02-28T12:52:08;45.70;;;21.80;;
60225;SDS011;46090;48.436;11.410;2024-02-28T12:54:35;55.65;;;25.27;;
60225;SDS011;46090;48.436;11.410;2024-02-28T12:57:02;54.03;;;26.45;;
60225;SDS011;46090;48.436;11.410;2024-02-28T12:59:32;41.70;;;20.70;;
60225;SDS011;46090;48.436;11.410;2024-02-28T13:01:59;42.45;;;20.83;;
60225;SDS011;46090;48.436;11.410;2024-02-28T13:04:26;44.45;;;21.77;;
60225;SDS011;46090;48.436;11.410;2024-02-28T13:06:54;37.95;;;18.83;;
60225;SDS011;46090;48.436;11.410;2024-02-28T13:09:21;49.22;;;24.60;;
60225;SDS011;46090;48.436;11.410;2024-02-28T13:11:49;42.63;;;20.63;;
60225;SDS011;46090;48.436;11.410;2024-02-28T13:14:16;42.78;;;20.75;;
60225;SDS011;46090;48.436;11.410;2024-02-28T13:16:43;42.28;;;21.08;;
60225;SDS011;46090;48.436;11.410;2024-02-28T13:19:10;43.08;;;20.42;;
60225;SDS011;46090;48.436;11.410;2024-02-28T13:21:37;38.47;;;18.27;;
60225;SDS011;46090;48.436;11.410;2024-02-28T13:24:04;43.33;;;21.20;;
60225;SDS011;46090;48.436;11.410;2024-02-28T13:26:31;42.80;;;20.40;;
60225;SDS011;46090;48.436;11.410;2024-02-28T13:28:57;43.83;;;19.40;;
60225;SDS011;46090;48.436;11.410;2024-02-28T13:31:24;38.45;;;19.58;;
60225;SDS011;46090;48.436;11.410;2024-02-28T13:33:51;35.28;;;17.63;;
60225;SDS011;46090;48.436;11.410;2024-02-28T13:36:17;38.42;;;18.85;;
60225;SDS011;46090;48.436;11.410;2024-02-28T13:38:44;39.28;;;19.10;;
60225;SDS011;46090;48.436;11.410;2024-02-28T13:41:11;36.22;;;17.67;;
60225;SDS011;46090;48.436;11.410;2024-02-28T13:43:38;36.38;;;18.10;;
60225;SDS011;46090;48.436;11.410;2024-02-28T13:46:04;38.35;;;18.40;;
60225;SDS011;46090;48.436;11.410;2024-02-28T13:48:32;39.95;;;18.92;;
60225;SDS011;46090;48.436;11.410;2024-02-28T13:51:00;41.67;;;19.92;;
60225;SDS011;46090;48.436;11.410;2024-02-28T13:53:26;39.67;;;18.92;;
60225;SDS011;46090;48.436;11.410;2024-02-28T13:55:53;38.50;;;18.63;;
60225;SDS011;46090;48.436;11.410;2024-02-28T13:58:21;41.60;;;20.67;;
60225;SDS011;46090;48.436;11.410;2024-02-28T14:00:48;37.17;;;18.50;;
60225;SDS011;46090;48.436;11.410;2024-02-28T14:03:15;42.90;;;20.77;;
60225;SDS011;46090;48.436;11.410;2024-02-28T14:05:41;39.00;;;19.40;;
60225;SDS011;46090;48.436;11.410;2024-02-28T14:08:08;37.50;;;19.30;;
60225;SDS011;46090;48.436;11.410;2024-02-28T14:10:36;43.17;;;20.30;;
60225;SDS011;46090;48.436;11.410;2024-02-28T14:13:03;38.42;;;19.25;;
60225;SDS011;46090;48.436;11.410;2024-02-28T14:15:30;39.03;;;19.48;;
60225;SDS011;46090;48.436;11.410;2024-02-28T14:17:57;40.55;;;20.70;;